Time;durP1;ratioP1;P1;durP2;ratioP2;P2;SDS_P1;SDS_P2;PMS_P1;PMS_P2;Temp;Humidity;BMP_temperature;BMP_pressure;BME280_temperature;BME280_humidity;BME280_pressure;Samples;Min_cycle;Max_cycle;Signal;HPM_P1;HPM_P2
2022/02/18 00:02:11;;;;;;;5.70;1.88;;;11.70;73.10;;;;;;10101845;28;20025;-61
2022/02/18 00:07:02;;;;;;;6.07;2.78;;;11.70;73.10;;;;;;10105019;28;20491;-61
2022/02/18 00:11:53;;;;;;;10.70;2.15;;;11.80;73.20;;;;;;10101423;28;20025;-61
2022/02/18 00:16:43;;;;;;;5.07;2.30;;;11.80;73.10;;;;;;10099356;28;20052;-61
2022/02/18 00:21:34;;;;;;;7.45;1.92;;;11.90;73.20;;;;;;10098750;28;20121;-61
2022/02/18 00:26:25;;;;;;;10.60;2.35;;;11.90;73.10;;;;;;10104786;28;20375;-61
2022/02/18 00:31:16;;;;;;;4.43;1.50;;;11.90;73.10;;;;;;10101504;28;20033;-61
2022/02/18 00:36:06;;;;;;;5.50;2.28;;;12.00;73.00;;;;;;10096979;28;20021;-63
2022/02/18 00:40:57;;;;;;;7.97;3.70;;;11.90;73.10;;;;;;10100058;28;20036;-62
2022/02/18 00:45:48;;;;;;;2.85;1.80;;;11.90;73.20;;;;;;10099208;28;20380;-61
2022/02/18 00:50:39;;;;;;;6.82;1.85;;;11.80;73.40;;;;;;10101560;28;20029;-63
2022/02/18 00:55:29;;;;;;;12.70;3.45;;;11.60;73.70;;;;;;10101487;28;20391;-63
2022/02/18 01:00:21;;;;;;;8.10;1.83;;;11.50;73.90;;;;;;10130267;28;20419;-63
2022/02/18 01:05:12;;;;;;;4.93;2.15;;;11.40;74.10;;;;;;10134347;28;20028;-65
2022/02/18 01:10:06;;;;;;;13.57;2.40;;;11.40;74.30;;;;;;10142472;28;20036;-65
2022/02/18 01:14:57;;;;;;;6.03;2.13;;;11.40;74.40;;;;;;10147177;28;20059;-64
2022/02/18 01:19:48;;;;;;;8.57;1.92;;;11.40;74.50;;;;;;10150780;28;20047;-63
2022/02/18 01:24:39;;;;;;;7.78;2.10;;;11.50;74.60;;;;;;10136445;28;20421;-64
2022/02/18 01:29:29;;;;;;;6.07;1.85;;;11.50;74.70;;;;;;10138457;28;20048;-66
2022/02/18 01:34:20;;;;;;;6.05;2.35;;;11.50;74.70;;;;;;10138393;28;20028;-65
2022/02/18 01:39:11;;;;;;;7.20;1.65;;;11.40;74.80;;;;;;10115828;28;20143;-63
2022/02/18 01:44:05;;;;;;;7.07;1.73;;;11.30;75.20;;;;;;10122318;28;20032;-63
2022/02/18 01:48:55;;;;;;;8.20;1.92;;;11.30;75.10;;;;;;10153058;28;20056;-64
2022/02/18 01:53:50;;;;;;;8.70;1.80;;;11.30;75.20;;;;;;10153605;28;20048;-62
2022/02/18 01:58:41;;;;;;;5.45;2.35;;;11.40;75.20;;;;;;10130656;28;20083;-66
2022/02/18 02:03:32;;;;;;;7.95;1.52;;;11.30;75.20;;;;;;10106462;28;20510;-64
2022/02/18 02:08:24;;;;;;;4.43;1.60;;;11.30;75.50;;;;;;10103762;28;20048;-65
2022/02/18 02:13:33;;;;;;;9.38;2.20;;;11.30;75.40;;;;;;10098705;28;20059;-63
2022/02/18 02:18:24;;;;;;;3.63;1.55;;;11.30;76.20;;;;;;10117538;28;20043;-65
2022/02/18 02:23:16;;;;;;;1.75;1.05;;;11.20;75.90;;;;;;10115770;28;20179;-63
2022/02/18 02:28:07;;;;;;;5.18;1.42;;;11.30;76.00;;;;;;10109828;28;20028;-64
2022/02/18 02:32:57;;;;;;;6.85;1.75;;;11.30;76.00;;;;;;10104930;28;20032;-63
2022/02/18 02:37:48;;;;;;;6.78;1.75;;;11.40;76.10;;;;;;10105785;28;20044;-63
2022/02/18 02:42:39;;;;;;;5.20;1.40;;;11.40;76.30;;;;;;10111991;28;20103;-64
2022/02/18 02:47:31;;;;;;;7.70;2.00;;;11.40;76.50;;;;;;10104124;28;20518;-63
2022/02/18 02:52:22;;;;;;;4.50;2.47;;;11.40;76.60;;;;;;10104993;28;20037;-63
2022/02/18 02:57:13;;;;;;;5.65;2.33;;;11.30;77.00;;;;;;10102984;28;20030;-63
2022/02/18 03:02:04;;;;;;;9.52;3.00;;;11.20;77.10;;;;;;10116453;28;20076;-63
2022/02/18 03:06:55;;;;;;;6.00;2.10;;;11.10;77.60;;;;;;10107634;28;20206;-64
2022/02/18 03:11:45;;;;;;;4.93;1.40;;;11.00;77.70;;;;;;10106616;28;20029;-64
2022/02/18 03:16:36;;;;;;;9.75;2.97;;;11.00;77.80;;;;;;10095795;28;20021;-63
2022/02/18 03:21:27;;;;;;;8.52;2.08;;;11.00;78.00;;;;;;10105038;28;20051;-69
2022/02/18 03:26:19;;;;;;;11.07;3.10;;;10.90;78.30;;;;;;10105565;28;20136;-64
2022/02/18 03:31:10;;;;;;;5.38;1.42;;;11.00;78.40;;;;;;10099994;28;20029;-63
2022/02/18 03:36:01;;;;;;;5.97;2.67;;;11.00;78.60;;;;;;10101989;28;20039;-63
2022/02/18 03:40:51;;;;;;;11.00;2.80;;;11.00;78.70;;;;;;10099853;28;20033;-63
2022/02/18 03:45:42;;;;;;;5.57;1.65;;;10.90;79.00;;;;;;10102811;28;20059;-64
2022/02/18 03:50:32;;;;;;;5.97;2.72;;;10.90;79.50;;;;;;10112313;28;20033;-69
2022/02/18 03:55:24;;;;;;;10.07;2.33;;;10.80;79.30;;;;;;10101134;28;20407;-64
2022/02/18 04:00:15;;;;;;;7.32;2.63;;;10.90;79.80;;;;;;10110416;28;20422;-64
2022/02/18 04:05:06;;;;;;;8.55;2.17;;;10.80;79.80;;;;;;10138721;28;20511;-63
2022/02/18 04:09:57;;;;;;;16.15;2.38;;;10.70;80.20;;;;;;10140707;28;20024;-71
2022/02/18 04:14:48;;;;;;;6.13;2.00;;;10.80;80.30;;;;;;10141383;28;20024;-64
2022/02/18 04:19:38;;;;;;;5.05;2.05;;;10.70;80.40;;;;;;10139717;28;20032;-68
2022/02/18 04:24:33;;;;;;;5.05;1.63;;;10.70;80.70;;;;;;10137977;28;20606;-63
2022/02/18 04:29:23;;;;;;;9.88;2.28;;;10.70;80.70;;;;;;10141506;28;20518;-65
2022/02/18 04:34:14;;;;;;;6.55;1.60;;;10.80;81.50;;;;;;10140477;28;20096;-67
2022/02/18 04:39:05;;;;;;;6.20;2.30;;;10.80;80.90;;;;;;10143396;28;20037;-63
2022/02/18 04:43:56;;;;;;;4.45;2.38;;;10.80;81.20;;;;;;10136545;28;20032;-63
2022/02/18 04:48:46;;;;;;;10.27;2.90;;;10.80;81.30;;;;;;10136798;28;20533;-66
2022/02/18 04:53:38;;;;;;;5.82;2.50;;;10.80;81.30;;;;;;10134075;28;20071;-63
2022/02/18 04:58:28;;;;;;;3.05;1.60;;;10.80;81.50;;;;;;10132756;28;20406;-64
2022/02/18 05:03:19;;;;;;;10.90;2.30;;;10.90;81.50;;;;;;10100846;28;20033;-64
2022/02/18 05:08:10;;;;;;;3.42;1.58;;;10.80;81.70;;;;;;10100726;28;20026;-63
2022/02/18 05:13:00;;;;;;;6.97;1.80;;;10.80;81.80;;;;;;10101758;28;20442;-62
2022/02/18 05:17:51;;;;;;;6.47;2.08;;;10.80;82.00;;;;;;10110557;28;20562;-65
2022/02/18 05:22:42;;;;;;;8.02;1.65;;;10.80;82.10;;;;;;10116220;28;20384;-63
2022/02/18 05:27:33;;;;;;;7.25;1.58;;;10.70;82.40;;;;;;10104035;28;20027;-64
2022/02/18 05:32:24;;;;;;;8.32;2.47;;;10.70;82.50;;;;;;10108133;28;20029;-63
2022/02/18 05:37:15;;;;;;;9.98;2.70;;;10.70;82.60;;;;;;10109057;28;20028;-62
2022/02/18 05:42:06;;;;;;;5.20;1.70;;;10.70;82.70;;;;;;10111156;28;20036;-64
2022/02/18 05:47:01;;;;;;;6.13;2.38;;;10.80;82.80;;;;;;10095903;28;20059;-64
2022/02/18 05:51:52;;;;;;;4.70;1.80;;;10.60;82.90;;;;;;10109040;28;20161;-66
2022/02/18 05:56:43;;;;;;;6.30;1.50;;;10.70;83.20;;;;;;10106273;28;20164;-63
2022/02/18 06:01:34;;;;;;;4.53;1.85;;;10.60;83.50;;;;;;10106912;28;20077;-69
2022/02/18 06:06:27;;;;;;;8.02;2.85;;;10.70;83.50;;;;;;10081029;28;20033;-66
2022/02/18 06:11:17;;;;;;;6.75;1.85;;;10.70;83.50;;;;;;10105204;28;20021;-65
2022/02/18 06:16:08;;;;;;;6.13;1.70;;;10.70;84.20;;;;;;10115967;28;20020;-63
2022/02/18 06:20:59;;;;;;;6.53;1.83;;;10.60;84.30;;;;;;10115335;28;20213;-63
2022/02/18 06:25:49;;;;;;;4.97;1.70;;;10.70;84.90;;;;;;10105328;28;20079;-65
2022/02/18 06:30:40;;;;;;;4.88;1.65;;;10.60;85.20;;;;;;10086196;28;20055;-64
2022/02/18 06:35:31;;;;;;;10.27;2.70;;;10.60;85.50;;;;;;10105230;28;20599;-64
2022/02/18 06:40:22;;;;;;;8.18;1.42;;;10.60;85.40;;;;;;10103814;28;20068;-67
2022/02/18 06:45:17;;;;;;;5.35;1.42;;;10.70;85.80;;;;;;10109942;28;20112;-63
2022/02/18 06:50:08;;;;;;;4.47;1.38;;;10.60;85.90;;;;;;10093014;28;20029;-63
2022/02/18 06:54:59;;;;;;;5.35;1.90;;;10.70;86.70;;;;;;10105145;28;20104;-63
2022/02/18 06:59:50;;;;;;;4.07;1.40;;;10.70;86.30;;;;;;10104826;28;20067;-66
2022/02/18 07:04:40;;;;;;;4.55;1.48;;;10.70;86.40;;;;;;10104624;28;20032;-65
2022/02/18 07:09:31;;;;;;;7.75;1.83;;;10.80;86.50;;;;;;10106434;28;20035;-64
2022/02/18 07:14:22;;;;;;;3.95;1.60;;;10.80;86.90;;;;;;10104273;28;20021;-64
2022/02/18 07:19:14;;;;;;;2.10;1.40;;;10.80;87.20;;;;;;10100057;28;20041;-66
2022/02/18 07:24:09;;;;;;;6.30;1.95;;;10.90;87.20;;;;;;10109857;28;20421;-66
2022/02/18 07:28:59;;;;;;;3.75;1.17;;;11.00;87.40;;;;;;10100254;28;20467;-64
2022/02/18 07:33:50;;;;;;;8.60;2.25;;;11.10;87.60;;;;;;10099629;28;20041;-63
2022/02/18 07:38:41;;;;;;;5.32;1.33;;;11.20;87.70;;;;;;10101047;28;20563;-63
2022/02/18 07:43:31;;;;;;;4.28;0.98;;;11.30;87.90;;;;;;10100639;28;20082;-66
2022/02/18 07:48:22;;;;;;;6.38;1.20;;;11.30;88.10;;;;;;10101971;28;20102;-68
2022/02/18 07:53:13;;;;;;;4.28;1.60;;;11.30;88.30;;;;;;10103025;28;20296;-63
2022/02/18 07:58:05;;;;;;;5.00;2.55;;;11.40;88.40;;;;;;10100460;28;20061;-63
2022/02/18 08:02:55;;;;;;;1.75;0.90;;;11.50;88.60;;;;;;10098778;28;20025;-64
2022/02/18 08:07:46;;;;;;;3.03;0.98;;;11.60;88.50;;;;;;10104340;28;20395;-63
2022/02/18 08:12:37;;;;;;;5.68;1.83;;;11.60;88.70;;;;;;10100063;28;20020;-64
2022/02/18 08:17:37;;;;;;;4.97;1.23;;;11.70;88.80;;;;;;10097864;28;20510;-63
2022/02/18 08:22:28;;;;;;;3.22;1.77;;;11.80;88.90;;;;;;10102731;28;20033;-66
2022/02/18 08:27:19;;;;;;;5.32;2.25;;;11.80;89.00;;;;;;10094748;28;20025;-65
2022/02/18 08:32:09;;;;;;;3.33;1.08;;;12.00;89.30;;;;;;10089697;28;20043;-64
2022/02/18 08:37:01;;;;;;;3.40;1.25;;;12.10;89.30;;;;;;10108377;28;20058;-65
2022/02/18 08:41:52;;;;;;;3.53;1.23;;;12.20;89.10;;;;;;10101375;28;20039;-65
2022/02/18 08:46:43;;;;;;;4.57;1.05;;;12.40;89.00;;;;;;10097935;28;20024;-66
2022/02/18 08:51:33;;;;;;;4.60;1.08;;;12.60;88.80;;;;;;10110300;28;20457;-66
2022/02/18 08:56:26;;;;;;;3.50;1.27;;;12.70;89.00;;;;;;10102577;28;20078;-65
2022/02/18 09:01:17;;;;;;;3.78;1.50;;;12.70;89.10;;;;;;10127556;28;20240;-68
2022/02/18 09:06:09;;;;;;;3.90;1.00;;;12.80;89.00;;;;;;10145741;28;20256;-67
2022/02/18 09:10:59;;;;;;;1.42;0.80;;;12.90;89.10;;;;;;10136920;28;20013;-66
2022/02/18 09:15:51;;;;;;;1.83;1.00;;;13.00;88.90;;;;;;10139962;28;20381;-67
2022/02/18 09:20:41;;;;;;;2.47;0.88;;;13.00;88.90;;;;;;10141084;28;20035;-68
2022/02/18 09:25:32;;;;;;;2.97;0.75;;;13.10;88.80;;;;;;10150268;28;20028;-63
2022/02/18 09:30:23;;;;;;;1.00;0.50;;;13.20;88.80;;;;;;10135122;28;20117;-65
2022/02/18 09:35:14;;;;;;;1.50;0.73;;;13.30;88.60;;;;;;10139033;28;20024;-65
2022/02/18 09:40:08;;;;;;;1.23;0.65;;;13.50;88.50;;;;;;10141237;28;20028;-63
2022/02/18 09:45:00;;;;;;;1.65;1.00;;;13.60;88.20;;;;;;10135415;28;20020;-64
2022/02/18 09:49:52;;;;;;;1.00;0.60;;;13.70;88.30;;;;;;10143289;28;20071;-63
2022/02/18 09:54:45;;;;;;;0.82;0.60;;;13.80;87.80;;;;;;10150985;28;20118;-64
2022/02/18 09:59:36;;;;;;;1.13;0.70;;;13.80;88.20;;;;;;10123212;28;20527;-64
2022/02/18 10:04:27;;;;;;;2.47;0.90;;;14.00;88.00;;;;;;10101365;28;20116;-64
2022/02/18 10:09:43;;;;;;;1.02;0.43;;;14.00;87.90;;;;;;10107712;28;20115;-62
2022/02/18 10:14:56;;;;;;;1.85;0.60;;;14.00;87.90;;;;;;10109411;28;20039;-65
2022/02/18 10:19:55;;;;;;;2.90;0.70;;;14.00;87.80;;;;;;10102220;28;20041;-64
2022/02/18 10:24:47;;;;;;;1.42;0.60;;;14.10;87.60;;;;;;10104157;28;20472;-65
2022/02/18 10:29:37;;;;;;;1.38;0.45;;;14.30;87.80;;;;;;10107702;28;20103;-63
2022/02/18 10:34:29;;;;;;;1.38;0.57;;;14.50;87.10;;;;;;10108068;28;20124;-65
2022/02/18 10:39:29;;;;;;;1.35;0.80;;;14.60;86.70;;;;;;10100191;28;20047;-64
2022/02/18 10:44:19;;;;;;;1.40;0.57;;;14.90;86.40;;;;;;10101769;28;20079;-63
2022/02/18 10:49:23;;;;;;;1.52;0.77;;;15.20;86.20;;;;;;10111026;28;20039;-63
2022/02/18 10:54:14;;;;;;;1.70;1.10;;;15.50;85.60;;;;;;10112381;28;20025;-64
2022/02/18 10:59:07;;;;;;;1.45;0.80;;;15.60;85.60;;;;;;10107642;28;20515;-65
2022/02/18 11:04:01;;;;;;;2.25;1.00;;;15.60;85.80;;;;;;10105374;28;20054;-65
2022/02/18 11:08:59;;;;;;;6.07;1.98;;;15.60;85.60;;;;;;10093767;28;20055;-66
2022/02/18 11:13:50;;;;;;;1.17;0.60;;;15.70;85.40;;;;;;10104257;28;20024;-64
2022/02/18 11:18:42;;;;;;;1.55;0.70;;;15.90;85.10;;;;;;10099272;28;20025;-63
2022/02/18 11:23:34;;;;;;;2.30;0.68;;;15.90;84.70;;;;;;10109596;28;20060;-64
2022/02/18 11:28:26;;;;;;;4.03;1.13;;;16.10;84.40;;;;;;10103168;28;20135;-64
2022/02/18 11:33:20;;;;;;;1.42;0.63;;;16.30;83.50;;;;;;10109994;28;20033;-64
2022/02/18 11:38:10;;;;;;;2.45;1.00;;;16.40;83.10;;;;;;10100786;28;20083;-64
2022/02/18 11:43:27;;;;;;;1.35;0.93;;;16.40;82.70;;;;;;10090666;28;20105;-63
2022/02/18 11:48:37;;;;;;;1.15;0.70;;;16.30;82.40;;;;;;10102823;28;20024;-69
2022/02/18 11:53:38;;;;;;;3.40;1.20;;;16.30;81.90;;;;;;10110671;28;20522;-64
2022/02/18 11:58:50;;;;;;;4.22;0.77;;;16.20;82.30;;;;;;10101370;28;20128;-63
2022/02/18 12:04:01;;;;;;;0.98;0.60;;;16.20;81.50;;;;;;10101123;28;20446;-64
2022/02/18 12:08:53;;;;;;;1.95;0.82;;;16.10;81.50;;;;;;10097089;28;20021;-65
2022/02/18 12:13:59;;;;;;;2.03;0.57;;;16.00;80.80;;;;;;10102239;28;20025;-66
2022/02/18 12:19:13;;;;;;;2.72;1.58;;;15.90;80.10;;;;;;10098507;28;20576;-64
2022/02/18 12:24:31;;;;;;;1.48;0.77;;;15.90;80.20;;;;;;10099063;28;20029;-67
2022/02/18 12:29:27;;;;;;;1.02;0.40;;;15.80;79.70;;;;;;10105601;28;20036;-64
2022/02/18 12:34:31;;;;;;;1.60;0.60;;;15.80;79.90;;;;;;10101168;28;20100;-65
2022/02/18 12:39:42;;;;;;;0.82;0.50;;;15.90;79.50;;;;;;10095519;28;20320;-65
2022/02/18 12:44:33;;;;;;;2.22;0.80;;;15.90;79.30;;;;;;10099903;28;20551;-64
2022/02/18 12:49:39;;;;;;;0.90;0.40;;;15.90;79.10;;;;;;10083335;28;20033;-68
2022/02/18 12:54:54;;;;;;;2.45;1.05;;;15.90;78.90;;;;;;10105723;28;20039;-62
2022/02/18 12:59:47;;;;;;;1.52;0.90;;;16.00;78.50;;;;;;10087663;28;20436;-64
2022/02/18 13:04:38;;;;;;;0.40;0.30;;;16.00;78.60;;;;;;10092430;28;20047;-63
2022/02/18 13:09:31;;;;;;;3.40;0.80;;;16.00;78.60;;;;;;10098248;28;20028;-64
2022/02/18 13:14:24;;;;;;;1.15;0.60;;;16.00;78.50;;;;;;10103610;28;20116;-63
2022/02/18 13:19:15;;;;;;;0.50;0.40;;;16.10;78.20;;;;;;10102418;28;20033;-63
2022/02/18 13:24:06;;;;;;;0.73;0.50;;;16.30;78.00;;;;;;10098070;28;20025;-63
2022/02/18 13:28:59;;;;;;;3.38;0.90;;;16.30;77.70;;;;;;10101816;28;20021;-64
2022/02/18 13:33:53;;;;;;;0.50;0.40;;;16.30;77.50;;;;;;10097021;28;20031;-64
2022/02/18 13:38:55;;;;;;;0.98;0.60;;;16.40;77.30;;;;;;10100319;28;20219;-64
2022/02/18 13:43:48;;;;;;;0.82;0.38;;;16.40;77.20;;;;;;10108939;28;20321;-66
2022/02/18 13:48:40;;;;;;;1.67;0.50;;;16.40;77.10;;;;;;10102679;28;20383;-64
2022/02/18 13:53:31;;;;;;;0.15;0.15;;;16.40;76.90;;;;;;10107748;28;20052;-63
2022/02/18 13:58:24;;;;;;;1.00;0.60;;;16.50;76.70;;;;;;10106727;28;20045;-63
2022/02/18 14:03:18;;;;;;;1.05;0.50;;;16.40;77.00;;;;;;10106284;28;20443;-64
2022/02/18 14:08:12;;;;;;;1.25;0.60;;;16.30;77.20;;;;;;10104213;28;20025;-63
2022/02/18 14:13:02;;;;;;;2.88;0.60;;;16.30;77.40;;;;;;10101131;28;20033;-63
2022/02/18 14:18:05;;;;;;;1.45;0.38;;;16.30;77.60;;;;;;10105866;28;20041;-64
2022/02/18 14:22:57;;;;;;;1.75;0.60;;;16.20;77.80;;;;;;10107382;28;20059;-64
2022/02/18 14:27:48;;;;;;;3.67;0.63;;;16.30;77.80;;;;;;10109270;28;20040;-64
2022/02/18 14:32:42;;;;;;;1.17;0.60;;;16.20;77.90;;;;;;10111730;28;20032;-65
2022/02/18 14:37:35;;;;;;;2.05;0.50;;;16.20;78.10;;;;;;10103961;28;20021;-69
2022/02/18 14:42:32;;;;;;;1.80;0.70;;;16.10;78.40;;;;;;10099303;28;20045;-63
2022/02/18 14:47:26;;;;;;;1.17;0.80;;;16.00;78.70;;;;;;10101824;28;20051;-64
2022/02/18 14:52:20;;;;;;;0.47;0.47;;;16.00;79.00;;;;;;10105778;28;20251;-64
2022/02/18 14:57:12;;;;;;;2.92;1.17;;;15.90;79.10;;;;;;10100368;28;20633;-63
2022/02/18 15:02:03;;;;;;;0.47;0.40;;;15.90;79.30;;;;;;10112061;28;20045;-62
2022/02/18 15:06:54;;;;;;;0.73;0.45;;;15.80;79.30;;;;;;10101046;28;20497;-63
2022/02/18 15:11:44;;;;;;;1.48;1.00;;;15.80;79.50;;;;;;10103008;28;20036;-63
2022/02/18 15:16:35;;;;;;;1.23;0.70;;;15.70;79.50;;;;;;10111969;28;20032;-62
2022/02/18 15:21:26;;;;;;;0.80;0.45;;;15.70;79.30;;;;;;10103832;28;20123;-63
2022/02/18 15:26:16;;;;;;;0.77;0.60;;;15.70;79.30;;;;;;10101128;28;20080;-62
2022/02/18 15:36:17;;;;;;;0.93;0.60;;;15.60;78.90;;;;;;10102729;28;20032;-63
2022/02/18 15:46:17;;;;;;;1.70;0.55;;;15.70;79.20;;;;;;10110333;28;20191;-64
2022/02/18 15:51:07;;;;;;;0.50;0.40;;;15.70;78.50;;;;;;10102620;28;20906;-65
2022/02/18 15:55:58;;;;;;;1.17;0.63;;;15.70;78.20;;;;;;10089705;28;20555;-64
2022/02/18 16:00:48;;;;;;;1.33;0.50;;;15.80;78.00;;;;;;10099902;28;20049;-65
2022/02/18 16:05:39;;;;;;;4.57;1.05;;;15.80;77.80;;;;;;10098798;28;20284;-65
2022/02/18 16:10:30;;;;;;;0.80;0.57;;;15.80;77.60;;;;;;10102175;28;20036;-64
2022/02/18 16:15:21;;;;;;;1.02;0.65;;;15.80;77.10;;;;;;10101992;28;20549;-65
2022/02/18 16:20:13;;;;;;;1.75;0.50;;;15.80;77.10;;;;;;10098134;28;20503;-65
2022/02/18 16:25:05;;;;;;;0.50;0.50;;;15.80;76.90;;;;;;10097796;28;20311;-64
2022/02/18 16:29:56;;;;;;;0.55;0.43;;;15.90;76.90;;;;;;10105795;28;20032;-65
2022/02/18 16:34:47;;;;;;;1.30;0.47;;;15.90;76.70;;;;;;10109209;28;20274;-63
2022/02/18 16:39:38;;;;;;;1.45;0.60;;;15.80;76.90;;;;;;10098063;28;20072;-64
2022/02/18 16:44:33;;;;;;;0.93;0.50;;;15.80;76.90;;;;;;10101769;28;20562;-64
2022/02/18 16:49:24;;;;;;;2.33;0.70;;;15.80;76.90;;;;;;10102507;28;20033;-64
2022/02/18 16:54:15;;;;;;;1.48;0.40;;;15.80;77.00;;;;;;10107553;28;20021;-65
2022/02/18 16:59:05;;;;;;;1.02;0.45;;;15.70;76.90;;;;;;10107512;28;20080;-65
2022/02/18 17:03:56;;;;;;;1.38;0.45;;;15.70;77.00;;;;;;10100939;28;20017;-64
2022/02/18 17:08:47;;;;;;;0.93;0.50;;;15.70;77.10;;;;;;10102193;28;20033;-64
2022/02/18 17:13:38;;;;;;;0.40;0.30;;;15.60;77.10;;;;;;10099460;28;20257;-63
2022/02/18 17:18:31;;;;;;;1.23;0.25;;;15.40;78.00;;;;;;10087848;28;20492;-64
2022/02/18 17:23:21;;;;;;;0.20;0.20;;;14.20;81.30;;;;;;10101134;28;20037;-62
2022/02/18 17:28:13;;;;;;;0.60;0.40;;;13.40;81.50;;;;;;10104548;28;20091;-66
2022/02/18 17:33:04;;;;;;;1.70;0.45;;;12.70;80.70;;;;;;10105557;28;20550;-63
2022/02/18 17:37:55;;;;;;;0.88;0.25;;;12.40;80.40;;;;;;10103657;28;20217;-62
2022/02/18 17:42:46;;;;;;;0.95;0.20;;;12.10;80.20;;;;;;10108760;28;20112;-63
2022/02/18 17:47:37;;;;;;;0.20;0.20;;;12.00;79.90;;;;;;10095770;28;20025;-63
2022/02/18 17:52:28;;;;;;;1.10;0.45;;;12.00;79.60;;;;;;10112973;28;20039;-64
2022/02/18 17:57:19;;;;;;;0.30;0.20;;;11.80;79.30;;;;;;10105603;28;20043;-63
2022/02/18 18:02:09;;;;;;;0.60;0.55;;;11.70;78.80;;;;;;10102977;28;20045;-63
2022/02/18 18:07:00;;;;;;;0.75;0.30;;;11.60;78.50;;;;;;10101435;28;20112;-63
2022/02/18 18:11:51;;;;;;;1.98;0.45;;;11.70;78.20;;;;;;10108109;28;20032;-63
2022/02/18 18:16:42;;;;;;;0.50;0.17;;;11.70;77.80;;;;;;10106278;28;20095;-64
2022/02/18 18:21:33;;;;;;;0.30;0.30;;;11.50;77.20;;;;;;10111240;28;20036;-62
2022/02/18 18:26:23;;;;;;;0.88;0.45;;;11.50;77.00;;;;;;10102303;28;20086;-63
2022/02/18 18:31:14;;;;;;;1.52;0.45;;;11.60;76.60;;;;;;10103502;28;20078;-69
2022/02/18 18:36:05;;;;;;;2.53;0.55;;;11.50;76.20;;;;;;10111055;28;20056;-65
2022/02/18 18:40:57;;;;;;;1.17;0.60;;;11.50;76.10;;;;;;10106670;28;20082;-68
2022/02/18 18:45:48;;;;;;;0.70;0.50;;;11.50;75.90;;;;;;10107941;28;20547;-67
2022/02/18 18:50:38;;;;;;;0.98;0.73;;;11.40;75.70;;;;;;10088401;28;20028;-63
2022/02/18 18:55:29;;;;;;;1.70;0.77;;;11.50;75.20;;;;;;10116721;28;20082;-64
2022/02/18 19:00:20;;;;;;;0.82;0.25;;;11.60;74.70;;;;;;10108426;28;20052;-64
2022/02/18 19:05:11;;;;;;;0.98;0.57;;;11.60;74.90;;;;;;10105146;28;20315;-65
2022/02/18 19:10:10;;;;;;;1.05;0.30;;;11.60;74.70;;;;;;10102246;28;20029;-67
2022/02/18 19:15:01;;;;;;;1.45;0.57;;;11.60;74.80;;;;;;10103523;28;20029;-68
2022/02/18 19:19:53;;;;;;;1.05;0.43;;;11.70;74.60;;;;;;10106045;28;20036;-72
2022/02/18 19:24:44;;;;;;;0.85;0.43;;;11.60;74.50;;;;;;10100824;28;20041;-65
2022/02/18 19:29:35;;;;;;;1.20;0.95;;;11.50;74.80;;;;;;10085242;28;20036;-64
2022/02/18 19:34:25;;;;;;;3.40;1.10;;;11.50;74.90;;;;;;10099178;28;20032;-66
2022/02/18 19:39:16;;;;;;;2.33;0.70;;;11.40;75.00;;;;;;10084646;28;20260;-64
2022/02/18 19:44:07;;;;;;;3.15;0.75;;;11.40;74.90;;;;;;10086701;28;20021;-65
2022/02/18 19:48:58;;;;;;;3.03;0.73;;;11.30;75.10;;;;;;10111955;28;20096;-66
2022/02/18 19:53:48;;;;;;;1.38;0.85;;;11.30;75.30;;;;;;10099711;28;20438;-68
2022/02/18 19:58:39;;;;;;;3.80;0.88;;;11.30;75.40;;;;;;10117966;28;20040;-69
2022/02/18 20:03:30;;;;;;;3.60;0.80;;;11.30;75.60;;;;;;10112523;28;20041;-65
2022/02/18 20:08:21;;;;;;;2.88;0.75;;;11.20;75.70;;;;;;10105744;28;20403;-63
2022/02/18 20:13:11;;;;;;;1.20;1.10;;;11.20;75.70;;;;;;10106067;28;20037;-65
2022/02/18 20:18:02;;;;;;;0.73;0.50;;;11.30;75.90;;;;;;10102474;28;20337;-67
2022/02/18 20:22:57;;;;;;;1.92;0.60;;;11.20;76.00;;;;;;10102301;28;20032;-65
2022/02/18 20:27:48;;;;;;;3.38;0.75;;;11.30;76.10;;;;;;10111087;28;20027;-68
2022/02/18 20:32:38;;;;;;;2.17;1.13;;;11.30;76.20;;;;;;10098753;28;20479;-64
2022/02/18 20:37:29;;;;;;;5.68;1.90;;;11.30;76.30;;;;;;10101093;28;20037;-65
2022/02/18 20:42:20;;;;;;;2.40;0.63;;;11.30;76.40;;;;;;10099673;28;20292;-65
2022/02/18 20:47:11;;;;;;;4.57;1.02;;;11.30;76.30;;;;;;10105486;28;20017;-65
2022/02/18 20:52:02;;;;;;;2.13;0.70;;;11.30;76.30;;;;;;10100765;28;20248;-66
2022/02/18 20:56:53;;;;;;;3.20;0.80;;;11.30;76.40;;;;;;10107448;28;20280;-66
2022/02/18 21:01:44;;;;;;;2.42;0.80;;;11.20;76.30;;;;;;10102549;28;20052;-66
2022/02/18 21:06:35;;;;;;;2.03;0.80;;;11.20;76.30;;;;;;10080387;28;20531;-71
2022/02/18 21:11:26;;;;;;;2.83;1.00;;;11.20;76.20;;;;;;10098599;28;20044;-69
2022/02/18 21:16:18;;;;;;;6.95;1.05;;;11.10;76.20;;;;;;10103262;28;20321;-64
2022/02/18 21:21:08;;;;;;;4.47;0.73;;;11.10;76.00;;;;;;10099127;28;20029;-70
2022/02/18 21:25:59;;;;;;;3.60;0.88;;;11.10;75.90;;;;;;10096596;28;20029;-64
2022/02/18 21:30:50;;;;;;;2.97;1.23;;;11.00;75.60;;;;;;10081749;28;20040;-67
2022/02/18 21:35:40;;;;;;;5.53;1.10;;;11.00;75.30;;;;;;10100619;28;20470;-64
2022/02/18 21:40:31;;;;;;;6.35;1.15;;;11.00;75.00;;;;;;10110654;28;20041;-65
2022/02/18 21:45:22;;;;;;;5.43;1.85;;;11.00;74.90;;;;;;10103747;28;20024;-65
2022/02/18 21:50:12;;;;;;;2.05;0.80;;;11.00;74.80;;;;;;10099240;28;20058;-69
2022/02/18 21:55:03;;;;;;;3.13;0.88;;;10.90;74.60;;;;;;10096914;28;20033;-65
2022/02/18 21:59:55;;;;;;;4.10;1.00;;;11.00;74.60;;;;;;10102994;28;20112;-65
2022/02/18 22:04:46;;;;;;;3.88;1.23;;;10.90;74.50;;;;;;10108025;28;20529;-65
2022/02/18 22:09:36;;;;;;;3.67;1.73;;;10.90;74.30;;;;;;10109843;28;20032;-63
2022/02/18 22:14:27;;;;;;;6.13;1.23;;;10.90;74.20;;;;;;10110170;28;20027;-67
2022/02/18 22:19:18;;;;;;;4.00;1.35;;;10.90;74.20;;;;;;10116045;28;20065;-65
2022/02/18 22:24:10;;;;;;;3.03;0.82;;;10.90;74.20;;;;;;10093482;28;20487;-64
2022/02/18 22:29:00;;;;;;;4.60;1.58;;;10.80;73.90;;;;;;10112615;28;20077;-67
2022/02/18 22:33:51;;;;;;;5.15;1.08;;;10.80;73.70;;;;;;10108660;28;20046;-66
2022/02/18 22:38:42;;;;;;;3.58;1.20;;;10.90;73.70;;;;;;10117221;28;20028;-65
2022/02/18 22:43:33;;;;;;;7.85;2.05;;;10.80;73.60;;;;;;10109927;28;20025;-65
2022/02/18 22:48:23;;;;;;;2.80;0.88;;;10.80;73.60;;;;;;10106329;28;20025;-66
2022/02/18 22:53:16;;;;;;;2.55;1.48;;;10.70;73.70;;;;;;10103231;28;20021;-65
2022/02/18 22:58:08;;;;;;;3.55;1.40;;;10.70;73.60;;;;;;10090884;28;20334;-65
2022/02/18 23:02:59;;;;;;;2.53;1.00;;;10.60;73.20;;;;;;10104868;28;20045;-65
2022/02/18 23:07:49;;;;;;;4.07;0.98;;;10.60;73.00;;;;;;10105766;28;20078;-64
2022/02/18 23:12:40;;;;;;;3.25;0.80;;;10.60;72.90;;;;;;10105453;28;20514;-65
2022/02/18 23:17:32;;;;;;;2.22;0.77;;;10.50;72.80;;;;;;10106235;28;20623;-65
2022/02/18 23:22:23;;;;;;;4.78;1.08;;;10.50;72.40;;;;;;10110697;28;20037;-65
2022/02/18 23:27:14;;;;;;;5.90;1.45;;;10.50;72.10;;;;;;10091398;28;20024;-64
2022/02/18 23:32:05;;;;;;;7.22;0.93;;;10.50;71.80;;;;;;10108088;28;20077;-67
2022/02/18 23:36:56;;;;;;;5.80;1.17;;;10.40;71.40;;;;;;10103132;28;20032;-65
2022/02/18 23:42:21;;;;;;;2.78;0.88;;;10.40;71.30;;;;;;10104353;28;20041;-65
2022/02/18 23:47:12;;;;;;;4.43;1.00;;;10.40;70.10;;;;;;10096904;28;20033;-65
2022/02/18 23:52:03;;;;;;;4.82;1.27;;;10.30;70.30;;;;;;10113883;28;20294;-64
2022/02/18 23:56:54;;;;;;;3.03;0.73;;;10.20;70.20;;;;;;10108358;28;20040;-67
